createdAt,value
2023-03-15T00:02:17.313Z,7.70
2023-03-15T00:04:44.459Z,7.90
2023-03-15T00:07:11.777Z,9.00
2023-03-15T00:09:38.925Z,9.50
2023-03-15T00:12:06.277Z,7.97
2023-03-15T00:14:33.492Z,8.23
2023-03-15T00:17:00.679Z,6.95
2023-03-15T00:19:27.819Z,7.97
2023-03-15T00:21:54.947Z,10.48
2023-03-15T00:24:24.714Z,10.40
2023-03-15T00:26:52.257Z,10.20
2023-03-15T00:29:19.469Z,8.55
2023-03-15T00:31:46.693Z,6.68
2023-03-15T00:34:14.013Z,7.20
2023-03-15T00:36:43.623Z,7.10
2023-03-15T00:39:10.775Z,6.43
2023-03-15T00:41:38.096Z,7.03
2023-03-15T00:44:05.291Z,7.85
2023-03-15T00:46:32.442Z,7.15
2023-03-15T00:48:59.675Z,7.28
2023-03-15T00:51:26.875Z,7.40
2023-03-15T00:53:54.384Z,10.68
2023-03-15T00:56:23.198Z,9.93
2023-03-15T00:58:52.852Z,12.15
2023-03-15T01:01:21.838Z,8.48
2023-03-15T01:03:49.491Z,7.43
2023-03-15T01:06:20.949Z,7.05
2023-03-15T01:08:48.569Z,6.70
2023-03-15T01:11:18.403Z,7.22
2023-03-15T01:13:45.552Z,7.57
2023-03-15T01:16:13.790Z,9.73
2023-03-15T01:18:41.419Z,9.70
2023-03-15T01:21:09.658Z,7.85
2023-03-15T01:23:36.924Z,7.28
2023-03-15T01:26:05.088Z,8.80
2023-03-15T01:28:32.632Z,6.32
2023-03-15T01:31:00.296Z,7.80
2023-03-15T01:33:28.041Z,5.47
2023-03-15T01:36:01.821Z,6.85
2023-03-15T01:38:29.249Z,7.75
2023-03-15T01:40:56.529Z,8.23
2023-03-15T01:43:28.205Z,7.80
2023-03-15T01:46:00.793Z,5.90
2023-03-15T01:48:45.030Z,7.22
2023-03-15T01:51:21.913Z,5.00
2023-03-15T01:53:53.038Z,7.22
2023-03-15T01:56:20.333Z,8.60
2023-03-15T01:58:48.566Z,7.68
2023-03-15T02:01:16.714Z,6.88
2023-03-15T02:03:46.794Z,6.38
2023-03-15T02:06:18.095Z,5.22
2023-03-15T02:08:47.589Z,6.25
2023-03-15T02:11:16.590Z,5.10
2023-03-15T02:13:45.732Z,6.13
2023-03-15T02:16:13.012Z,6.93
2023-03-15T02:18:40.340Z,5.30
2023-03-15T02:21:19.873Z,4.55
2023-03-15T02:23:49.168Z,5.35
2023-03-15T02:26:25.591Z,5.90
2023-03-15T02:28:53.874Z,6.72
2023-03-15T02:31:22.055Z,5.55
2023-03-15T02:33:53.008Z,6.05
2023-03-15T02:36:20.457Z,6.60
2023-03-15T02:38:48.521Z,6.13
2023-03-15T02:41:17.856Z,6.05
2023-03-15T02:43:46.479Z,5.80
2023-03-15T02:46:13.974Z,4.53
2023-03-15T02:48:41.908Z,4.95
2023-03-15T02:51:17.142Z,7.25
2023-03-15T02:53:44.327Z,5.18
2023-03-15T02:56:11.519Z,4.97
2023-03-15T02:58:38.770Z,7.05
2023-03-15T03:01:06.028Z,10.18
2023-03-15T03:03:33.220Z,6.97
2023-03-15T03:06:00.359Z,4.55
2023-03-15T03:08:27.525Z,4.63
2023-03-15T03:10:54.690Z,5.22
2023-03-15T03:13:21.828Z,6.07
2023-03-15T03:15:58.413Z,4.20
2023-03-15T03:18:29.789Z,4.97
2023-03-15T03:20:57.565Z,5.45
2023-03-15T03:23:27.752Z,4.43
2023-03-15T03:25:55.633Z,4.30
2023-03-15T03:28:24.147Z,8.18
2023-03-15T03:30:51.903Z,4.85
2023-03-15T03:33:19.152Z,4.15
2023-03-15T03:35:46.316Z,7.75
2023-03-15T03:38:13.798Z,4.65
2023-03-15T03:40:41.306Z,3.72
2023-03-15T03:43:09.395Z,4.10
2023-03-15T03:45:36.722Z,6.32
2023-03-15T03:48:03.940Z,4.32
2023-03-15T03:50:31.788Z,4.22
2023-03-15T03:52:58.958Z,5.18
2023-03-15T03:55:26.348Z,5.68
2023-03-15T03:57:53.608Z,5.20
2023-03-15T04:00:21.574Z,3.13
2023-03-15T04:02:48.809Z,12.38
2023-03-15T04:05:16.102Z,4.22
2023-03-15T04:07:43.356Z,6.50
2023-03-15T04:10:14.700Z,4.00
2023-03-15T04:12:43.232Z,3.92
2023-03-15T04:15:11.636Z,4.63
2023-03-15T04:17:39.511Z,5.40
2023-03-15T04:20:09.097Z,5.55
2023-03-15T04:22:36.293Z,4.95
2023-03-15T04:25:03.465Z,4.60
2023-03-15T04:27:30.822Z,4.35
2023-03-15T04:29:58.018Z,3.85
2023-03-15T04:32:25.280Z,4.03
2023-03-15T04:34:52.575Z,3.85
2023-03-15T04:37:19.927Z,4.32
2023-03-15T04:39:47.113Z,4.20
2023-03-15T04:42:14.253Z,3.92
2023-03-15T04:44:41.388Z,5.57
2023-03-15T04:47:08.679Z,10.65
2023-03-15T04:49:35.838Z,4.97
2023-03-15T04:52:03.011Z,3.47
2023-03-15T04:54:30.231Z,3.50
2023-03-15T04:56:57.486Z,5.10
2023-03-15T04:59:24.710Z,3.20
2023-03-15T05:01:51.869Z,3.72
2023-03-15T05:04:19.065Z,3.17
2023-03-15T05:06:46.256Z,4.35
2023-03-15T05:09:19.004Z,3.95
2023-03-15T05:11:46.833Z,4.38
2023-03-15T05:14:14.516Z,4.28
2023-03-15T05:16:43.207Z,3.60
2023-03-15T05:19:11.274Z,3.88
2023-03-15T05:21:38.458Z,5.22
2023-03-15T05:24:05.781Z,3.75
2023-03-15T05:26:34.939Z,3.90
2023-03-15T05:29:02.117Z,3.25
2023-03-15T05:31:29.363Z,3.78
2023-03-15T05:33:56.556Z,5.22
2023-03-15T05:36:23.807Z,3.35
2023-03-15T05:38:51.813Z,5.35
2023-03-15T05:41:19.042Z,3.28
2023-03-15T05:43:46.355Z,3.78
2023-03-15T05:46:13.806Z,3.03
2023-03-15T05:48:41.014Z,3.45
2023-03-15T05:51:08.177Z,4.28
2023-03-15T05:53:35.412Z,4.40
2023-03-15T05:56:02.616Z,4.00
2023-03-15T05:58:29.890Z,3.25
2023-03-15T06:00:57.056Z,4.05
2023-03-15T06:03:24.256Z,4.07
2023-03-15T06:05:51.472Z,6.15
2023-03-15T06:08:18.679Z,8.55
2023-03-15T06:10:46.023Z,4.40
2023-03-15T06:13:13.277Z,4.60
2023-03-15T06:15:40.591Z,4.57
2023-03-15T06:18:08.326Z,4.45
2023-03-15T06:20:36.007Z,7.57
2023-03-15T06:23:03.154Z,6.45
2023-03-15T06:25:30.684Z,5.20
2023-03-15T06:27:57.886Z,4.28
2023-03-15T06:30:26.266Z,5.13
2023-03-15T06:32:53.495Z,7.30
2023-03-15T06:35:22.201Z,6.47
2023-03-15T06:37:49.510Z,4.30
2023-03-15T06:40:16.746Z,4.75
2023-03-15T06:42:43.892Z,5.00
2023-03-15T06:45:11.375Z,7.15
2023-03-15T06:47:38.651Z,5.43
2023-03-15T06:50:06.377Z,4.45
2023-03-15T06:52:33.525Z,5.18
2023-03-15T06:55:00.802Z,6.50
2023-03-15T06:57:28.047Z,3.85
2023-03-15T06:59:55.249Z,7.32
2023-03-15T07:02:22.424Z,4.45
2023-03-15T07:04:49.641Z,8.05
2023-03-15T07:07:16.879Z,6.75
2023-03-15T07:09:44.103Z,5.53
2023-03-15T07:12:11.822Z,5.18
2023-03-15T07:14:39.067Z,7.90
2023-03-15T07:17:06.216Z,9.15
2023-03-15T07:19:34.558Z,12.90
2023-03-15T07:22:01.880Z,7.13
2023-03-15T07:24:29.138Z,5.50
2023-03-15T07:26:56.727Z,4.50
2023-03-15T07:29:24.669Z,9.60
2023-03-15T07:31:52.317Z,7.75
2023-03-15T07:34:19.597Z,4.90
2023-03-15T07:36:46.938Z,7.05
2023-03-15T07:39:14.275Z,6.55
2023-03-15T07:41:41.472Z,9.00
2023-03-15T07:44:08.604Z,9.13
2023-03-15T07:46:36.121Z,6.22
2023-03-15T07:49:03.289Z,4.97
2023-03-15T07:51:30.526Z,7.10
2023-03-15T07:53:57.691Z,8.13
2023-03-15T07:56:24.939Z,5.70
2023-03-15T07:58:52.157Z,4.53
2023-03-15T08:01:19.357Z,4.63
2023-03-15T08:03:46.497Z,5.50
2023-03-15T08:06:13.887Z,8.18
2023-03-15T08:08:41.021Z,6.03
2023-03-15T08:11:08.161Z,10.48
2023-03-15T08:13:35.820Z,7.47
2023-03-15T08:16:03.130Z,7.57
2023-03-15T08:18:30.387Z,9.63
2023-03-15T08:20:59.228Z,6.47
2023-03-15T08:23:26.465Z,11.18
2023-03-15T08:25:53.678Z,16.27
2023-03-15T08:28:20.940Z,9.57
2023-03-15T08:30:48.122Z,10.25
2023-03-15T08:33:15.580Z,11.52
2023-03-15T08:35:42.899Z,7.20
2023-03-15T08:38:10.477Z,6.43
2023-03-15T08:40:39.878Z,12.55
2023-03-15T08:43:07.147Z,6.47
2023-03-15T08:45:50.944Z,7.97
2023-03-15T08:48:21.453Z,8.77
2023-03-15T08:50:48.657Z,8.35
2023-03-15T08:53:15.891Z,4.63
2023-03-15T08:55:43.102Z,6.78
2023-03-15T08:58:12.719Z,7.53
2023-03-15T09:00:39.923Z,14.18
2023-03-15T09:03:07.101Z,10.07
2023-03-15T09:05:34.265Z,6.93
2023-03-15T09:08:01.957Z,8.93
2023-03-15T09:10:30.679Z,6.07
2023-03-15T09:12:57.822Z,8.30
2023-03-15T09:15:25.016Z,6.53
2023-03-15T09:17:52.284Z,8.90
2023-03-15T09:20:22.327Z,10.75
2023-03-15T09:22:53.802Z,9.65
2023-03-15T09:25:26.742Z,13.50
2023-03-15T09:27:54.263Z,7.68
2023-03-15T09:30:21.634Z,9.00
2023-03-15T09:32:48.985Z,9.25
2023-03-15T09:35:17.654Z,8.63
2023-03-15T09:37:44.959Z,9.20
2023-03-15T09:40:25.225Z,8.20
2023-03-15T09:42:52.382Z,10.02
2023-03-15T09:45:19.556Z,12.10
2023-03-15T09:48:08.864Z,22.30
2023-03-15T09:50:38.806Z,15.48
2023-03-15T09:53:17.142Z,8.50
2023-03-15T09:55:45.666Z,11.40
2023-03-15T09:58:32.856Z,17.60
2023-03-15T10:01:05.956Z,15.45
2023-03-15T10:03:38.091Z,13.93
2023-03-15T10:06:17.906Z,16.15
2023-03-15T10:08:45.802Z,14.43
2023-03-15T10:11:31.995Z,14.27
2023-03-15T10:16:41.060Z,11.43
2023-03-15T10:19:14.981Z,10.32
2023-03-15T10:21:45.119Z,11.23
2023-03-15T10:24:23.635Z,10.45
2023-03-15T10:26:51.732Z,8.13
2023-03-15T10:29:21.696Z,8.70
2023-03-15T10:31:49.991Z,7.72
2023-03-15T10:34:17.995Z,8.88
2023-03-15T10:36:46.181Z,8.52
2023-03-15T10:39:14.102Z,8.20
2023-03-15T10:41:43.054Z,5.15
2023-03-15T10:44:15.586Z,6.00
2023-03-15T10:46:43.070Z,5.32
2023-03-15T10:49:15.684Z,4.68
2023-03-15T10:51:43.958Z,6.43
2023-03-15T10:54:22.876Z,7.03
2023-03-15T10:57:07.445Z,5.30
2023-03-15T10:59:36.226Z,7.30
2023-03-15T11:02:12.501Z,4.72
2023-03-15T11:04:44.047Z,7.30
2023-03-15T11:07:13.492Z,13.00
2023-03-15T11:09:40.898Z,8.27
2023-03-15T11:12:09.032Z,6.55
2023-03-15T11:14:39.181Z,7.10
2023-03-15T11:17:07.191Z,8.32
2023-03-15T11:19:42.160Z,5.85
2023-03-15T11:22:13.176Z,5.88
2023-03-15T11:24:40.600Z,7.70
2023-03-15T11:27:13.889Z,7.40
2023-03-15T11:29:43.033Z,8.38
2023-03-15T11:32:15.159Z,6.10
2023-03-15T11:34:42.341Z,6.93
2023-03-15T11:37:17.711Z,7.13
2023-03-15T11:40:08.844Z,7.32
2023-03-15T11:42:55.631Z,5.63
2023-03-15T11:45:37.214Z,6.72
2023-03-15T11:48:09.001Z,8.68
2023-03-15T11:50:36.183Z,6.75
2023-03-15T11:53:06.876Z,6.90
2023-03-15T11:55:34.279Z,7.25
2023-03-15T11:58:21.808Z,30.10
2023-03-15T12:00:50.973Z,7.22
2023-03-15T12:03:26.510Z,8.25
2023-03-15T12:05:59.952Z,9.52
2023-03-15T12:08:36.054Z,7.72
2023-03-15T12:11:10.715Z,9.93
2023-03-15T12:13:37.886Z,9.02
2023-03-15T12:16:07.519Z,5.95
2023-03-15T12:18:45.140Z,8.15
2023-03-15T12:21:14.759Z,6.70
2023-03-15T12:23:43.801Z,6.97
2023-03-15T12:26:15.350Z,4.97
2023-03-15T12:28:50.583Z,7.03
2023-03-15T12:31:18.320Z,6.10
2023-03-15T12:33:58.273Z,7.38
2023-03-15T12:36:39.700Z,5.78
2023-03-15T12:39:15.969Z,7.35
2023-03-15T12:41:44.644Z,5.88
2023-03-15T12:44:25.045Z,5.93
2023-03-15T12:46:52.164Z,5.70
2023-03-15T12:49:19.332Z,5.03
2023-03-15T12:51:59.243Z,5.75
2023-03-15T12:54:31.738Z,5.53
2023-03-15T12:57:00.876Z,5.90
2023-03-15T12:59:51.132Z,5.80
2023-03-15T13:02:35.948Z,4.47
2023-03-15T13:05:24.263Z,8.15
2023-03-15T13:07:52.290Z,4.22
2023-03-15T13:10:39.671Z,4.40
2023-03-15T13:13:06.840Z,5.85
2023-03-15T13:15:55.051Z,5.75
2023-03-15T13:18:23.954Z,255.45
2023-03-15T13:21:00.073Z,241.70
2023-03-15T13:23:27.275Z,210.65
2023-03-15T13:25:54.437Z,226.95
2023-03-15T13:28:26.174Z,243.75
2023-03-15T13:30:54.441Z,282.23
2023-03-15T13:33:28.540Z,310.27
2023-03-15T13:36:03.303Z,239.23
2023-03-15T13:38:30.913Z,228.98
2023-03-15T13:40:59.120Z,200.18
2023-03-15T13:43:27.591Z,168.23
2023-03-15T13:45:57.212Z,154.57
2023-03-15T13:48:24.461Z,146.80
2023-03-15T13:50:52.903Z,131.05
2023-03-15T13:53:35.582Z,119.57
2023-03-15T13:56:12.715Z,105.43
2023-03-15T13:58:40.292Z,90.05
2023-03-15T14:01:09.502Z,76.43
2023-03-15T14:03:37.692Z,70.22
2023-03-15T14:06:05.154Z,60.88
2023-03-15T14:08:33.672Z,53.13
2023-03-15T14:11:21.152Z,42.92
2023-03-15T14:13:51.377Z,39.63
2023-03-15T14:16:32.704Z,35.50
2023-03-15T14:19:18.062Z,30.95
2023-03-15T14:21:48.837Z,24.00
2023-03-15T14:24:17.651Z,19.77
2023-03-15T14:26:45.204Z,20.40
2023-03-15T14:29:21.609Z,5.97
2023-03-15T14:31:50.714Z,4.85
2023-03-15T14:34:17.877Z,6.03
2023-03-15T14:36:45.905Z,6.20
2023-03-15T14:39:19.193Z,6.30
2023-03-15T14:41:46.432Z,4.65
2023-03-15T14:44:13.672Z,4.30
2023-03-15T14:46:40.817Z,5.65
2023-03-15T14:49:08.125Z,6.35
2023-03-15T14:51:35.315Z,8.40
2023-03-15T14:54:02.615Z,7.03
2023-03-15T14:56:29.895Z,6.65
2023-03-15T14:58:57.162Z,7.47
2023-03-15T15:01:25.967Z,7.05
2023-03-15T15:03:55.551Z,6.70
2023-03-15T15:06:22.815Z,5.90
2023-03-15T15:08:52.380Z,5.75
2023-03-15T15:11:19.665Z,5.20
2023-03-15T15:13:46.908Z,4.63
2023-03-15T15:16:14.098Z,5.03
2023-03-15T15:18:41.281Z,4.50
2023-03-15T15:21:16.902Z,5.38
2023-03-15T15:23:57.486Z,5.28
2023-03-15T15:26:27.077Z,6.13
2023-03-15T15:28:54.302Z,5.60
2023-03-15T15:31:25.023Z,4.35
2023-03-15T15:33:53.147Z,5.53
2023-03-15T15:36:24.410Z,4.65
2023-03-15T15:38:51.864Z,8.65
2023-03-15T15:41:22.744Z,4.82
2023-03-15T15:43:50.005Z,3.92
2023-03-15T15:46:17.283Z,4.78
2023-03-15T15:48:44.640Z,6.78
2023-03-15T15:51:32.105Z,5.18
2023-03-15T15:54:00.735Z,6.78
2023-03-15T15:56:31.370Z,4.50
2023-03-15T15:58:59.155Z,5.15
2023-03-15T16:01:26.466Z,7.10
2023-03-15T16:03:53.730Z,6.65
2023-03-15T16:06:22.093Z,8.40
2023-03-15T16:08:51.149Z,7.00
2023-03-15T16:11:18.618Z,7.72
2023-03-15T16:13:46.337Z,8.52
2023-03-15T16:16:15.402Z,6.22
2023-03-15T16:18:43.157Z,9.57
2023-03-15T16:21:16.354Z,7.70
2023-03-15T16:23:43.931Z,29.13
2023-03-15T16:26:12.700Z,14.30
2023-03-15T16:28:39.886Z,19.42
2023-03-15T16:31:07.037Z,16.42
2023-03-15T16:33:34.633Z,25.23
2023-03-15T16:36:02.266Z,15.63
2023-03-15T16:38:32.361Z,16.70
2023-03-15T16:41:01.152Z,46.60
2023-03-15T16:43:28.757Z,45.45
2023-03-15T16:45:55.973Z,31.40
2023-03-15T16:48:23.167Z,37.65
2023-03-15T16:50:51.779Z,36.05
2023-03-15T16:53:19.298Z,30.13
2023-03-15T16:55:46.701Z,32.28
2023-03-15T16:58:18.785Z,28.90
2023-03-15T17:00:48.145Z,25.63
2023-03-15T17:03:15.972Z,30.05
2023-03-15T17:05:45.152Z,30.50
2023-03-15T17:08:18.139Z,23.95
2023-03-15T17:10:45.424Z,30.65
2023-03-15T17:13:15.427Z,29.73
2023-03-15T17:15:42.722Z,23.90
2023-03-15T17:18:19.944Z,24.90
2023-03-15T17:20:48.086Z,23.25
2023-03-15T17:23:15.524Z,21.67
2023-03-15T17:25:42.756Z,25.92
2023-03-15T17:28:10.013Z,27.38
2023-03-15T17:30:38.042Z,24.13
2023-03-15T17:33:05.706Z,24.48
2023-03-15T17:35:38.058Z,22.65
2023-03-15T17:38:05.978Z,24.50
2023-03-15T17:40:34.501Z,18.83
2023-03-15T17:43:02.777Z,22.23
2023-03-15T17:45:33.781Z,22.92
2023-03-15T17:48:01.257Z,25.67
2023-03-15T17:50:30.419Z,22.13
2023-03-15T17:53:05.224Z,19.10
2023-03-15T17:55:36.091Z,21.67
2023-03-15T17:58:04.505Z,16.77
2023-03-15T18:00:32.636Z,19.23
2023-03-15T18:03:00.800Z,24.08
2023-03-15T18:05:29.229Z,18.00
2023-03-15T18:07:59.766Z,23.00
2023-03-15T18:10:28.949Z,19.10
2023-03-15T18:12:56.119Z,21.85
2023-03-15T18:15:23.990Z,21.42
2023-03-15T18:17:51.204Z,20.58
2023-03-15T18:20:18.690Z,22.88
2023-03-15T18:22:45.965Z,23.20
2023-03-15T18:25:20.842Z,20.60
2023-03-15T18:27:48.573Z,21.57
2023-03-15T18:30:16.993Z,18.88
2023-03-15T18:32:44.405Z,19.88
2023-03-15T18:35:15.139Z,26.63
2023-03-15T18:37:42.275Z,21.33
2023-03-15T18:40:10.243Z,17.75
2023-03-15T18:42:37.408Z,24.77
2023-03-15T18:45:04.787Z,18.75
2023-03-15T18:47:32.554Z,21.33
2023-03-15T18:50:09.662Z,19.35
2023-03-15T18:52:37.597Z,18.77
2023-03-15T18:55:07.721Z,19.60
2023-03-15T18:57:35.629Z,18.13
2023-03-15T19:00:07.232Z,26.42
2023-03-15T19:02:34.527Z,16.25
2023-03-15T19:05:01.730Z,22.88
2023-03-15T19:07:28.929Z,17.08
2023-03-15T19:09:56.087Z,17.58
2023-03-15T19:12:23.267Z,15.95
2023-03-15T19:14:50.488Z,13.45
2023-03-15T19:17:17.702Z,18.38
2023-03-15T19:19:44.914Z,15.63
2023-03-15T19:22:12.160Z,15.60
2023-03-15T19:24:39.336Z,15.60
2023-03-15T19:27:06.629Z,14.63
2023-03-15T19:29:33.916Z,16.48
2023-03-15T19:32:01.134Z,14.25
2023-03-15T19:34:28.359Z,15.77
2023-03-15T19:36:55.598Z,17.63
2023-03-15T19:39:22.766Z,15.73
2023-03-15T19:41:49.925Z,13.20
2023-03-15T19:44:17.080Z,23.02
2023-03-15T19:46:45.358Z,13.98
2023-03-15T19:49:12.609Z,16.88
2023-03-15T19:51:39.756Z,15.35
2023-03-15T19:54:07.003Z,14.68
2023-03-15T19:56:34.306Z,17.98
2023-03-15T19:59:01.699Z,13.73
2023-03-15T20:01:28.924Z,11.20
2023-03-15T20:03:56.176Z,14.30
2023-03-15T20:06:23.389Z,16.38
2023-03-15T20:08:50.970Z,15.50
2023-03-15T20:11:25.117Z,13.68
2023-03-15T20:13:53.271Z,13.63
2023-03-15T20:16:20.798Z,11.98
2023-03-15T20:18:50.977Z,18.20
2023-03-15T20:21:18.672Z,12.55
2023-03-15T20:23:47.072Z,11.57
2023-03-15T20:26:16.744Z,10.40
2023-03-15T20:28:44.398Z,10.40
2023-03-15T20:31:12.846Z,14.82
2023-03-15T20:33:40.102Z,11.45
2023-03-15T20:36:07.662Z,9.90
2023-03-15T20:38:37.103Z,9.57
2023-03-15T20:41:05.115Z,12.93
2023-03-15T20:43:33.013Z,15.45
2023-03-15T20:46:01.229Z,14.38
2023-03-15T20:48:29.104Z,14.13
2023-03-15T20:50:58.009Z,12.95
2023-03-15T20:53:25.780Z,13.35
2023-03-15T20:55:53.003Z,9.50
2023-03-15T20:58:21.370Z,11.48
2023-03-15T21:00:48.654Z,9.48
2023-03-15T21:03:17.302Z,9.00
2023-03-15T21:05:46.772Z,10.88
2023-03-15T21:08:14.376Z,12.82
2023-03-15T21:10:41.767Z,9.43
2023-03-15T21:13:10.309Z,12.23
2023-03-15T21:15:46.366Z,11.23
2023-03-15T21:18:17.952Z,12.15
2023-03-15T21:20:45.284Z,14.73
2023-03-15T21:23:13.102Z,10.57
2023-03-15T21:25:40.389Z,13.52
2023-03-15T21:28:07.742Z,11.43
2023-03-15T21:30:35.000Z,13.25
2023-03-15T21:33:02.833Z,12.93
2023-03-15T21:35:30.266Z,11.05
2023-03-15T21:37:58.158Z,10.93
2023-03-15T21:40:25.639Z,14.35
2023-03-15T21:42:52.970Z,11.93
2023-03-15T21:45:23.053Z,11.63
2023-03-15T21:47:50.280Z,9.77
2023-03-15T21:50:17.539Z,12.85
2023-03-15T21:52:44.965Z,9.50
2023-03-15T21:55:15.807Z,15.35
2023-03-15T21:57:44.591Z,9.23
2023-03-15T22:00:17.673Z,9.13
2023-03-15T22:02:46.549Z,7.68
2023-03-15T22:05:14.865Z,13.20
2023-03-15T22:07:42.533Z,9.77
2023-03-15T22:10:10.406Z,11.57
2023-03-15T22:12:38.222Z,11.60
2023-03-15T22:15:06.535Z,11.35
2023-03-15T22:17:34.338Z,9.30
2023-03-15T22:20:02.142Z,10.45
2023-03-15T22:22:29.365Z,14.93
2023-03-15T22:24:56.645Z,8.57
2023-03-15T22:27:23.845Z,10.52
2023-03-15T22:29:52.302Z,14.13
2023-03-15T22:32:19.523Z,8.00
2023-03-15T22:34:46.834Z,9.45
2023-03-15T22:37:14.043Z,8.20
2023-03-15T22:39:42.969Z,9.23
2023-03-15T22:42:10.260Z,8.98
2023-03-15T22:44:37.484Z,13.25
2023-03-15T22:47:04.752Z,6.93
2023-03-15T22:49:31.949Z,13.65
2023-03-15T22:51:59.223Z,7.40
2023-03-15T22:54:26.651Z,8.82
2023-03-15T22:56:54.011Z,7.20
2023-03-15T22:59:21.290Z,10.27
2023-03-15T23:01:48.577Z,8.57
2023-03-15T23:04:15.954Z,9.05
2023-03-15T23:06:43.277Z,6.28
2023-03-15T23:09:11.099Z,9.38
2023-03-15T23:11:38.367Z,7.88
2023-03-15T23:14:05.565Z,5.50
2023-03-15T23:16:32.909Z,13.32
2023-03-15T23:19:00.312Z,8.23
2023-03-15T23:21:27.610Z,9.43
2023-03-15T23:23:54.844Z,7.00
2023-03-15T23:26:25.283Z,5.20
2023-03-15T23:28:53.349Z,6.15
2023-03-15T23:31:21.021Z,8.02
2023-03-15T23:33:48.311Z,6.70
2023-03-15T23:36:15.512Z,7.47
2023-03-15T23:38:42.845Z,7.78
2023-03-15T23:41:10.067Z,7.93
2023-03-15T23:43:37.293Z,9.75
2023-03-15T23:46:06.220Z,8.80
2023-03-15T23:48:35.607Z,6.63
2023-03-15T23:51:03.126Z,5.65
2023-03-15T23:53:30.621Z,7.47
2023-03-15T23:55:57.832Z,7.82
2023-03-15T23:58:25.416Z,9.65
